Time;durP1;ratioP1;P1;durP2;ratioP2;P2;SDS_P1;SDS_P2;PMS_P1;PMS_P2;Temp;Humidity;BMP_temperature;BMP_pressure;BME280_temperature;BME280_humidity;BME280_pressure;Samples;Min_cycle;Max_cycle;Signal;HPM_P1;HPM_P2
2023/04/02 00:02:21;;;;;;;23.33;6.00;;;;;;;6.25;100.00;101704.88;5078318;28;20117;-89
2023/04/02 00:05:15;;;;;;;17.10;5.85;;;;;;;6.27;100.00;101709.22;5082179;28;20564;-88
2023/04/02 00:07:47;;;;;;;15.73;4.93;;;;;;;5.98;100.00;101667.69;5086328;28;20043;-89
2023/04/02 00:10:25;;;;;;;16.42;4.95;;;;;;;5.95;100.00;101657.31;5081343;28;20112;-88
2023/04/02 00:13:02;;;;;;;18.73;4.90;;;;;;;6.28;100.00;101717.84;5077202;28;20063;-88
2023/04/02 00:15:29;;;;;;;13.75;3.90;;;;;;;6.23;100.00;101709.22;5077171;28;20112;-87
2023/04/02 00:17:57;;;;;;;17.02;4.63;;;;;;;6.21;100.00;101693.59;5077320;28;20450;-87
2023/04/02 00:20:26;;;;;;;15.13;3.17;;;;;;;5.83;100.00;101624.41;5097729;28;20052;-87
2023/04/02 00:22:55;;;;;;;15.55;3.97;;;;;;;6.38;100.00;101723.91;5077056;28;20040;-89
2023/04/02 00:25:26;;;;;;;12.70;4.00;;;;;;;6.16;100.00;101698.00;5073704;28;20048;-88
2023/04/02 00:27:55;;;;;;;18.60;3.83;;;;;;;6.42;100.00;101733.41;5095451;28;20055;-88
2023/04/02 00:30:22;;;;;;;18.90;4.80;;;;;;;6.31;100.00;101725.66;5092674;28;20102;-88
2023/04/02 00:32:50;;;;;;;18.15;4.43;;;;;;;5.98;100.00;101677.25;5077229;28;20052;-89
2023/04/02 00:35:23;;;;;;;17.80;3.53;;;;;;;6.36;100.00;101744.72;5077136;28;20473;-89
2023/04/02 00:37:50;;;;;;;15.68;3.75;;;;;;;5.98;100.00;101675.50;5094447;28;20044;-88
2023/04/02 00:40:38;;;;;;;16.02;4.25;;;;;;;6.17;100.00;101702.31;5076167;28;20093;-89
2023/04/02 00:43:05;;;;;;;17.40;3.78;;;;;;;6.36;100.00;101751.66;5077229;28;20382;-89
2023/04/02 00:45:36;;;;;;;12.07;3.33;;;;;;;6.23;100.00;101723.09;5076576;28;20070;-89
2023/04/02 00:48:22;;;;;;;11.20;2.97;;;;;;;5.89;100.00;101660.75;5071968;28;20048;-89
2023/04/02 00:50:52;;;;;;;19.30;4.25;;;;;;;5.97;100.00;101686.78;5069799;28;20123;-89
2023/04/02 00:53:28;;;;;;;18.05;4.38;;;;;;;6.11;100.00;101738.75;5062537;28;20700;-89
2023/04/02 00:55:57;;;;;;;15.13;4.38;;;;;;;6.27;100.00;101749.97;5076023;28;20070;-88
2023/04/02 00:58:28;;;;;;;14.73;3.83;;;;;;;6.36;100.00;101757.72;5079769;28;20032;-88
2023/04/02 01:00:57;;;;;;;19.13;4.22;;;;;;;6.17;100.00;101753.47;5075378;28;20048;-89
2023/04/02 01:03:33;;;;;;;17.17;4.28;;;;;;;6.42;100.00;101772.44;5078277;28;20044;-89
2023/04/02 01:06:09;;;;;;;17.00;4.55;;;;;;;6.13;100.00;101723.13;5083164;28;20151;-89
2023/04/02 01:08:55;;;;;;;15.05;3.92;;;;;;;6.51;100.00;101779.34;5074953;28;20373;-88
2023/04/02 01:11:49;;;;;;;14.23;3.75;;;;;;;6.57;100.00;101784.50;5074786;28;20480;-89
2023/04/02 01:14:16;;;;;;;12.15;3.97;;;;;;;6.49;100.00;101781.94;5068413;28;20056;-89
2023/04/02 01:16:45;;;;;;;17.85;4.05;;;;;;;6.48;100.00;101782.84;5069121;28;20101;-89
2023/04/02 01:19:20;;;;;;;18.92;4.15;;;;;;;6.54;100.00;101790.59;5075162;28;20043;-89
2023/04/02 01:22:02;;;;;;;19.98;4.15;;;;;;;6.53;100.00;101793.22;5062282;28;20361;-88
2023/04/02 01:24:32;;;;;;;18.48;4.18;;;;;;;6.20;100.00;101756.06;5079792;28;20127;-89
2023/04/02 01:27:11;;;;;;;14.77;3.65;;;;;;;6.50;100.00;101801.03;5076034;28;20112;-88
2023/04/02 01:29:49;;;;;;;19.65;4.45;;;;;;;6.50;100.00;101807.09;5075541;28;20048;-88
2023/04/02 01:32:19;;;;;;;15.07;4.53;;;;;;;6.28;100.00;101764.69;5060333;28;20048;-89
2023/04/02 01:34:47;;;;;;;14.43;3.58;;;;;;;6.45;100.00;101799.31;5062470;28;20040;-89
2023/04/02 01:37:35;;;;;;;17.73;3.92;;;;;;;6.50;100.00;101814.91;5075958;28;20087;-88
2023/04/02 01:40:37;;;;;;;17.00;4.40;;;;;;;6.12;100.00;101752.59;5074655;28;20374;-88
2023/04/02 01:43:28;;;;;;;10.98;3.63;;;;;;;6.35;100.00;101808.00;5091911;28;20036;-88
2023/04/02 01:46:03;;;;;;;19.55;4.50;;;;;;;6.24;100.00;101800.22;5061098;28;20049;-89
2023/04/02 01:48:30;;;;;;;9.90;3.47;;;;;;;5.98;100.00;101765.63;5075477;28;20080;-89
2023/04/02 01:50:59;;;;;;;13.70;4.32;;;;;;;5.84;100.00;101757.81;5074698;28;20040;-89
2023/04/02 01:53:29;;;;;;;17.08;4.55;;;;;;;5.90;100.00;101786.41;5075899;28;20044;-91
2023/04/02 01:55:59;;;;;;;16.35;3.95;;;;;;;6.12;100.00;101818.47;5077004;28;20105;-91
2023/04/02 01:58:31;;;;;;;14.82;3.90;;;;;;;5.75;100.00;101774.28;5082109;28;20164;-89
2023/04/02 02:01:12;;;;;;;15.60;4.03;;;;;;;5.49;100.00;101724.97;5081749;28;20048;-90
2023/04/02 02:03:41;;;;;;;18.85;4.05;;;;;;;5.55;100.00;101737.94;5074680;28;20280;-90
2023/04/02 02:06:13;;;;;;;18.40;4.57;;;;;;;5.89;100.00;101805.47;5076221;28;20041;-90
2023/04/02 02:08:53;;;;;;;13.43;4.13;;;;;;;5.86;100.00;101795.94;5076145;28;20117;-90
2023/04/02 02:11:22;;;;;;;13.88;3.92;;;;;;;6.20;100.00;101844.47;5075569;28;20128;-89
2023/04/02 02:13:54;;;;;;;17.02;3.30;;;;;;;5.97;100.00;101805.50;5075993;28;20048;-89
2023/04/02 02:16:21;;;;;;;12.57;3.63;;;;;;;5.71;100.00;101759.56;5083645;28;20078;-91
2023/04/02 02:18:52;;;;;;;12.90;3.35;;;;;;;6.21;100.00;101833.19;5073917;28;20400;-91
2023/04/02 02:21:35;;;;;;;19.38;4.07;;;;;;;6.01;100.00;101809.81;5079565;28;20044;-90
2023/04/02 02:24:03;;;;;;;16.83;3.95;;;;;;;5.97;100.00;101800.31;5097538;28;20116;-90
2023/04/02 02:26:34;;;;;;;13.82;3.25;;;;;;;5.99;100.00;101793.38;5080410;28;20048;-90
2023/04/02 02:29:05;;;;;;;10.75;3.47;;;;;;;6.33;100.00;101851.38;5095646;28;20048;-91
2023/04/02 02:31:34;;;;;;;13.52;3.55;;;;;;;5.80;100.00;101777.75;5072454;28;20056;-90
2023/04/02 02:34:07;;;;;;;15.23;4.10;;;;;;;6.13;100.00;101825.41;5079884;28;20385;-89
2023/04/02 02:36:50;;;;;;;15.82;3.85;;;;;;;6.02;100.00;101809.84;5079796;28;20047;-90
2023/04/02 02:39:36;;;;;;;14.93;3.53;;;;;;;6.35;100.00;101859.19;5079320;28;20051;-90
2023/04/02 02:42:49;;;;;;;18.75;3.35;;;;;;;6.36;100.00;101874.78;5095023;28;20097;-90
2023/04/02 02:45:21;;;;;;;11.43;3.10;;;;;;;6.20;100.00;101841.88;5074964;28;20047;-90
2023/04/02 02:47:49;;;;;;;13.07;3.10;;;;;;;6.31;100.00;101863.53;5082075;28;20058;-91
2023/04/02 02:50:30;;;;;;;18.58;3.67;;;;;;;6.25;100.00;101854.00;5078700;28;20048;-91
2023/04/02 02:52:59;;;;;;;15.95;3.60;;;;;;;6.05;100.00;101819.34;5079831;28;20051;-90
2023/04/02 02:55:35;;;;;;;18.52;3.35;;;;;;;6.18;100.00;101844.47;5087583;28;20049;-91
2023/04/02 02:58:09;;;;;;;11.25;3.58;;;;;;;6.02;100.00;101820.22;5065846;28;20039;-90
2023/04/02 03:00:38;;;;;;;13.82;4.50;;;;;;;6.32;100.00;101872.19;5094289;28;20048;-89
2023/04/02 03:03:09;;;;;;;18.23;4.40;;;;;;;5.95;100.00;101827.97;5079239;28;20055;-89
2023/04/02 03:05:37;;;;;;;17.90;3.78;;;;;;;5.88;100.00;101817.59;5079564;28;20121;-90
2023/04/02 03:08:11;;;;;;;14.45;3.90;;;;;;;6.04;100.00;101849.69;5078016;28;20044;-90
2023/04/02 03:11:22;;;;;;;15.65;3.95;;;;;;;6.03;100.00;101842.75;5072612;28;20493;-89
2023/04/02 03:13:54;;;;;;;15.40;3.53;;;;;;;6.40;100.00;101891.25;5079310;28;20113;-89
2023/04/02 03:16:28;;;;;;;18.40;3.72;;;;;;;6.06;100.00;101847.94;5082716;28;20102;-89
2023/04/02 03:19:07;;;;;;;15.07;3.50;;;;;;;6.04;100.00;101854.88;5097325;28;20100;-90
2023/04/02 03:22:02;;;;;;;17.88;3.80;;;;;;;6.33;100.00;101903.41;5097151;28;20056;-90
2023/04/02 03:24:54;;;;;;;14.60;3.50;;;;;;;6.27;100.00;101893.00;5079692;28;20082;-90
2023/04/02 03:27:52;;;;;;;8.90;2.70;;;;;;;6.37;100.00;101892.09;5075443;28;20052;-89
2023/04/02 03:30:32;;;;;;;11.70;2.75;;;;;;;6.32;100.00;101901.69;5086885;28;20044;-90
2023/04/02 03:33:05;;;;;;;12.55;3.08;;;;;;;6.33;100.00;101911.19;5095832;28;20094;-89
2023/04/02 03:35:42;;;;;;;16.70;3.53;;;;;;;6.42;100.00;101918.97;5079464;28;20491;-90
2023/04/02 03:38:17;;;;;;;13.57;3.30;;;;;;;6.17;100.00;101881.75;5087551;28;20504;-90
2023/04/02 03:40:57;;;;;;;14.50;3.63;;;;;;;6.00;100.00;101866.16;5064410;28;20055;-90
2023/04/02 03:43:29;;;;;;;19.70;3.78;;;;;;;6.33;100.00;101928.56;5079081;28;20052;-90
2023/04/02 03:46:05;;;;;;;15.02;3.75;;;;;;;6.15;100.00;101903.44;5096253;28;20048;-91
2023/04/02 03:48:39;;;;;;;12.25;3.22;;;;;;;6.44;100.00;101952.81;5079524;28;20055;-90
2023/04/02 03:51:19;;;;;;;11.02;3.85;;;;;;;6.41;100.00;101948.50;5094729;28;20481;-90
2023/04/02 03:53:47;;;;;;;19.00;3.38;;;;;;;6.08;100.00;101900.81;5079077;28;20120;-90
2023/04/02 03:56:38;;;;;;;18.92;3.58;;;;;;;6.38;100.00;101961.50;5079223;28;20477;-90
2023/04/02 03:59:25;;;;;;;14.02;3.72;;;;;;;6.41;100.00;101958.91;5079244;28;20142;-90
2023/04/02 04:01:58;;;;;;;17.88;3.97;;;;;;;6.07;100.00;101913.81;5063333;28;20113;-89
2023/04/02 04:04:28;;;;;;;15.95;4.07;;;;;;;5.88;100.00;101897.34;5075976;28;20404;-90
2023/04/02 04:06:57;;;;;;;15.95;3.85;;;;;;;6.26;100.00;101956.28;5059324;28;20535;-91
2023/04/02 04:09:35;;;;;;;19.88;3.95;;;;;;;6.36;100.00;101959.78;5090368;28;20052;-90
2023/04/02 04:12:13;;;;;;;24.50;4.05;;;;;;;6.35;100.00;101968.44;5074502;28;20052;-90
2023/04/02 04:14:47;;;;;;;14.32;3.40;;;;;;;6.16;100.00;101928.53;5077735;28;20043;-90
2023/04/02 04:17:28;;;;;;;15.93;3.78;;;;;;;6.31;100.00;101958.91;5077970;28;20048;-90
2023/04/02 04:20:07;;;;;;;16.00;3.78;;;;;;;6.29;100.00;101966.69;5090214;28;20060;-89
2023/04/02 04:22:34;;;;;;;11.50;2.60;;;;;;;6.03;100.00;101925.09;5058091;28;20049;-89
2023/04/02 04:25:16;;;;;;;13.10;3.55;;;;;;;6.35;100.00;101974.50;5058045;28;20062;-90
2023/04/02 04:28:15;;;;;;;14.77;3.30;;;;;;;6.26;100.00;101961.50;5080969;28;20529;-90
2023/04/02 04:30:51;;;;;;;13.23;3.15;;;;;;;6.14;100.00;101933.75;5077524;28;20289;-90
2023/04/02 04:33:24;;;;;;;20.98;4.25;;;;;;;6.32;100.00;101965.81;5078359;28;20109;-90
2023/04/02 04:35:56;;;;;;;14.68;3.33;;;;;;;5.83;100.00;101883.47;5078295;28;20055;-91
2023/04/02 04:38:33;;;;;;;14.40;4.28;;;;;;;6.20;100.00;101945.91;5077930;28;20040;-91
2023/04/02 04:41:11;;;;;;;17.63;3.55;;;;;;;6.16;100.00;101936.34;5076742;28;20101;-89
2023/04/02 04:43:49;;;;;;;17.15;3.45;;;;;;;6.23;100.00;101956.28;5094625;28;20093;-90
2023/04/02 04:46:29;;;;;;;13.07;2.65;;;;;;;6.45;100.00;101993.59;5094281;28;20048;-90
2023/04/02 04:49:09;;;;;;;20.88;3.40;;;;;;;5.94;100.00;101918.13;5095662;28;20046;-90
2023/04/02 04:51:41;;;;;;;12.75;3.55;;;;;;;6.34;100.00;101983.19;5076849;28;20052;-88
2023/04/02 04:54:12;;;;;;;13.10;3.13;;;;;;;6.24;100.00;101968.44;5109383;28;20079;-88
2023/04/02 04:56:43;;;;;;;13.27;3.45;;;;;;;5.94;100.00;101918.13;5076990;28;20048;-88
2023/04/02 04:59:23;;;;;;;13.25;3.10;;;;;;;6.38;100.00;101999.66;5076651;28;20473;-88
2023/04/02 05:02:04;;;;;;;13.57;2.72;;;;;;;6.25;100.00;101963.25;5076415;28;20051;-89
2023/04/02 05:04:36;;;;;;;13.20;3.53;;;;;;;6.47;100.00;101999.66;5080458;28;20051;-88
2023/04/02 05:07:20;;;;;;;19.63;3.85;;;;;;;6.34;100.00;101979.69;5066420;28;20059;-90
2023/04/02 05:10:18;;;;;;;19.35;3.58;;;;;;;6.50;100.00;102003.97;5057036;28;20044;-89
2023/04/02 05:12:53;;;;;;;12.07;2.97;;;;;;;6.53;100.00;102012.63;5076583;28;20056;-90
2023/04/02 05:15:32;;;;;;;9.35;2.88;;;;;;;6.03;100.00;101928.53;5076984;28;20048;-89
2023/04/02 05:18:08;;;;;;;15.38;3.00;;;;;;;6.47;100.00;102020.47;5074651;28;20101;-89
2023/04/02 05:20:42;;;;;;;13.35;3.80;;;;;;;6.40;100.00;102019.59;5085891;28;20048;-89
2023/04/02 05:23:17;;;;;;;14.25;2.78;;;;;;;6.27;100.00;101997.91;5077280;28;20047;-90
2023/04/02 05:26:20;;;;;;;19.17;3.67;;;;;;;6.55;100.00;102029.16;5094516;28;20052;-89
2023/04/02 05:29:12;;;;;;;9.82;2.83;;;;;;;6.14;100.00;101961.50;5075681;28;20048;-89
2023/04/02 05:32:02;;;;;;;16.48;3.97;;;;;;;6.55;100.00;102039.56;5077964;28;20098;-90
2023/04/02 05:34:35;;;;;;;11.82;3.33;;;;;;;6.51;100.00;102049.94;5086398;28;20388;-90
2023/04/02 05:37:03;;;;;;;16.13;4.15;;;;;;;6.29;100.00;102031.72;5110457;28;20044;-89
2023/04/02 05:39:32;;;;;;;23.88;4.88;;;;;;;6.41;100.00;102046.47;5072967;28;20044;-88
2023/04/02 05:42:04;;;;;;;16.42;3.33;;;;;;;6.11;100.00;101998.78;5075257;28;20097;-89
2023/04/02 05:44:35;;;;;;;20.95;4.22;;;;;;;6.21;100.00;102012.63;5103958;28;20047;-89
2023/04/02 05:47:13;;;;;;;16.10;3.22;;;;;;;6.44;100.00;102041.25;5080236;28;20048;-90
2023/04/02 05:49:50;;;;;;;26.13;4.80;;;;;;;6.20;100.00;102014.38;5076704;28;20056;-90
2023/04/02 05:52:23;;;;;;;12.30;3.38;;;;;;;6.60;100.00;102061.22;5093794;28;20503;-88
2023/04/02 05:55:01;;;;;;;12.20;3.13;;;;;;;6.68;100.00;102066.44;5079980;28;20055;-88
2023/04/02 05:57:34;;;;;;;16.75;3.35;;;;;;;6.32;100.00;102021.34;5091452;28;20059;-88
2023/04/02 06:00:17;;;;;;;13.80;3.22;;;;;;;6.33;100.00;102032.59;5080852;28;20051;-88
2023/04/02 06:02:53;;;;;;;15.00;3.10;;;;;;;6.43;100.00;102039.56;5079793;28;20535;-88
2023/04/02 06:05:25;;;;;;;10.57;2.55;;;;;;;6.55;100.00;102052.56;5079856;28;20080;-89
2023/04/02 06:08:02;;;;;;;16.35;3.38;;;;;;;6.46;100.00;102061.22;5097892;28;20059;-88
2023/04/02 06:10:34;;;;;;;10.82;2.30;;;;;;;6.44;100.00;102049.06;5089870;28;20814;-88
2023/04/02 06:13:05;;;;;;;10.57;2.53;;;;;;;6.76;100.00;102087.25;5097056;28;20105;-88
2023/04/02 06:15:35;;;;;;;12.18;3.50;;;;;;;6.67;100.00;102089.84;5093784;28;20102;-88
2023/04/02 06:18:27;;;;;;;14.60;4.00;;;;;;;6.50;100.00;102069.03;5077397;28;20052;-89
2023/04/02 06:20:54;;;;;;;16.73;3.25;;;;;;;6.58;100.00;102070.75;5069811;28;20047;-88
2023/04/02 06:23:38;;;;;;;12.02;3.30;;;;;;;6.78;100.00;102096.81;5082133;28;20426;-89
2023/04/02 06:26:35;;;;;;;16.65;4.00;;;;;;;6.83;100.00;102100.28;5096023;28;20051;-89
2023/04/02 06:29:12;;;;;;;19.52;3.30;;;;;;;6.28;100.00;102014.38;5071328;28;20469;-89
2023/04/02 06:32:11;;;;;;;15.27;3.40;;;;;;;6.91;100.00;102105.47;5063026;28;20044;-89
2023/04/02 06:34:41;;;;;;;9.95;2.72;;;;;;;6.66;100.00;102073.38;5091396;28;20435;-89
2023/04/02 06:37:38;;;;;;;12.27;2.85;;;;;;;6.97;100.00;102099.41;5071035;28;20097;-88
2023/04/02 06:40:24;;;;;;;9.55;2.60;;;;;;;6.68;100.00;102063.84;5078613;28;20048;-88
2023/04/02 06:42:58;;;;;;;30.85;4.95;;;;;;;6.29;100.00;102023.06;5058955;28;20048;-88
2023/04/02 06:45:32;;;;;;;15.13;2.88;;;;;;;6.70;100.00;102095.94;5075684;28;20052;-90
2023/04/02 06:48:02;;;;;;;16.35;4.07;;;;;;;6.64;100.00;102102.00;5076638;28;20051;-89
2023/04/02 06:50:44;;;;;;;16.10;3.05;;;;;;;6.87;100.00;102114.16;5076742;28;20044;-89
2023/04/02 06:53:35;;;;;;;15.60;3.38;;;;;;;6.88;100.00;102125.44;5087748;28;20113;-89
2023/04/02 06:56:30;;;;;;;16.88;3.17;;;;;;;6.98;100.00;102130.66;5066048;28;20052;-87
2023/04/02 06:58:57;;;;;;;14.35;3.60;;;;;;;6.61;100.00;102095.94;5078760;28;20056;-89
2023/04/02 07:01:28;;;;;;;11.82;2.92;;;;;;;6.87;100.00;102128.91;5077657;28;20027;-88
2023/04/02 07:03:55;;;;;;;15.45;3.28;;;;;;;7.09;100.00;102124.56;5065195;28;20496;-89
2023/04/02 07:06:21;;;;;;;10.57;2.63;;;;;;;6.75;100.00;102067.31;5088336;28;20427;-90
2023/04/02 07:08:48;;;;;;;12.82;3.03;;;;;;;6.56;100.00;102035.22;5074451;28;20053;-88
2023/04/02 07:11:17;;;;;;;21.17;4.20;;;;;;;6.59;100.00;102082.91;5079957;28;20051;-90
2023/04/02 07:13:47;;;;;;;16.50;4.00;;;;;;;7.01;100.00;102148.00;5084718;28;20130;-86
2023/04/02 07:16:21;;;;;;;10.07;2.28;;;;;;;6.93;100.00;102121.09;5094773;28;20056;-87
2023/04/02 07:18:48;;;;;;;16.00;2.83;;;;;;;7.13;100.00;102142.78;5081597;28;20390;-90
2023/04/02 07:21:15;;;;;;;16.65;3.88;;;;;;;7.09;100.00;102124.56;5067793;28;20102;-89
2023/04/02 07:23:42;;;;;;;13.43;2.20;;;;;;;6.88;100.00;102091.59;5083396;28;20052;-85
2023/04/02 07:26:15;;;;;;;14.80;3.10;;;;;;;7.45;100.00;102156.66;5078775;28;20044;-91
2023/04/02 07:28:42;;;;;;;20.85;3.55;;;;;;;6.97;100.00;102096.78;5079054;28;20413;-89
2023/04/02 07:31:24;;;;;;;22.10;4.65;;;;;;;7.07;100.00;102128.91;5066874;28;20044;-88
2023/04/02 07:33:58;;;;;;;17.20;3.13;;;;;;;7.53;100.00;102168.78;5094573;28;20113;-88
2023/04/02 07:36:27;;;;;;;10.00;2.65;;;;;;;7.39;100.00;102160.13;5098853;28;20526;-89
2023/04/02 07:38:54;;;;;;;14.25;3.13;;;;;;;6.93;100.00;102101.13;5095939;28;20063;-90
2023/04/02 07:41:22;;;;;;;17.17;3.17;;;;;;;7.18;100.00;102138.44;5077166;28;20079;-89
2023/04/02 07:43:48;;;;;;;14.30;3.15;;;;;;;7.15;100.00;102140.19;5077762;28;20047;-89
2023/04/02 07:46:16;;;;;;;9.75;3.17;;;;;;;7.29;100.00;102167.06;5095227;28;20472;-89
2023/04/02 07:48:43;;;;;;;11.60;2.85;;;;;;;7.45;100.00;102177.50;5077849;28;20060;-90
2023/04/02 07:51:22;;;;;;;13.35;2.88;;;;;;;7.36;100.00;102170.56;5096750;28;20044;-89
2023/04/02 07:53:53;;;;;;;12.88;3.08;;;;;;;7.14;100.00;102133.25;5077909;28;20048;-89
2023/04/02 07:56:21;;;;;;;13.85;2.83;;;;;;;7.57;100.00;102187.91;5077883;28;20097;-89
2023/04/02 07:58:48;;;;;;;17.38;3.55;;;;;;;7.08;100.00;102128.03;5075580;28;20093;-90
2023/04/02 08:01:18;;;;;;;15.50;3.20;;;;;;;7.31;100.00;102167.97;5071146;28;20393;-90
2023/04/02 08:03:45;;;;;;;24.08;4.22;;;;;;;7.18;100.00;102174.91;5083973;28;20097;-90
2023/04/02 08:06:12;;;;;;;25.92;4.55;;;;;;;6.95;100.00;102142.81;5077833;28;20133;-90
2023/04/02 08:08:39;;;;;;;15.55;3.55;;;;;;;7.11;100.00;102165.34;5095769;28;20093;-90
2023/04/02 08:11:07;;;;;;;21.08;4.03;;;;;;;7.19;100.00;102199.25;5094995;28;20044;-90
2023/04/02 08:13:34;;;;;;;14.25;3.72;;;;;;;6.96;100.00;102153.22;5078013;28;20117;-89
2023/04/02 08:16:01;;;;;;;19.48;3.53;;;;;;;6.98;100.00;102164.50;5083340;28;20050;-90
2023/04/02 08:18:28;;;;;;;11.90;3.10;;;;;;;7.37;100.00;102193.16;5078876;28;20113;-89
2023/04/02 08:20:56;;;;;;;25.70;4.18;;;;;;;7.15;100.00;102190.56;5077137;28;20056;-89
2023/04/02 08:23:23;;;;;;;11.05;2.80;;;;;;;7.41;100.00;102224.41;5076989;28;20055;-89
2023/04/02 08:25:50;;;;;;;21.77;3.58;;;;;;;7.16;100.00;102188.81;5094925;28;20097;-89
2023/04/02 08:28:17;;;;;;;18.42;4.07;;;;;;;7.45;100.00;102224.41;5077077;28;20044;-88
2023/04/02 08:30:44;;;;;;;18.40;3.58;;;;;;;7.25;100.00;102193.16;5076031;28;20052;-89
2023/04/02 08:33:11;;;;;;;13.23;3.13;;;;;;;7.07;100.00;102155.81;5073754;28;20080;-88
2023/04/02 08:35:38;;;;;;;21.73;4.90;;;;;;;7.25;100.00;102203.56;5065821;28;20101;-90
2023/04/02 08:38:05;;;;;;;18.25;5.88;;;;;;;7.45;100.00;102172.28;5077781;28;20047;-89
2023/04/02 08:40:37;;;;;;;11.95;3.03;;;;;;;7.42;100.00;102149.72;5076267;28;20094;-89
2023/04/02 08:43:20;;;;;;;16.58;3.97;;;;;;;7.84;100.00;102220.84;5077129;28;20051;-90
2023/04/02 08:46:07;;;;;;;15.60;4.57;;;;;;;7.69;100.00;102198.31;5103339;28;20052;-90
2023/04/02 08:48:37;;;;;;;19.23;3.78;;;;;;;7.95;100.00;102213.88;5076771;28;20080;-89
2023/04/02 08:51:20;;;;;;;13.98;3.83;;;;;;;8.21;100.00;102225.09;5076306;28;20045;-89
2023/04/02 08:53:48;;;;;;;18.38;4.80;;;;;;;7.82;100.00;102193.06;5076455;28;20477;-89
2023/04/02 08:56:27;;;;;;;22.48;4.82;;;;;;;7.88;100.00;102196.53;5094304;28;20526;-89
2023/04/02 08:58:57;;;;;;;19.05;3.63;;;;;;;8.03;100.00;102189.50;5076460;28;20413;-90
2023/04/02 09:01:41;;;;;;;18.67;3.78;;;;;;;8.22;100.00;102239.91;5075087;28;20047;-90
2023/04/02 09:04:17;;;;;;;18.70;4.45;;;;;;;7.44;100.00;102171.41;5076434;28;20059;-90
2023/04/02 09:06:46;;;;;;;23.70;5.28;;;;;;;7.54;100.00;102187.91;5095035;28;20448;-91
2023/04/02 09:09:14;;;;;;;19.88;3.17;;;;;;;7.92;100.00;102218.25;5094168;28;20545;-92
2023/04/02 09:12:13;;;;;;;19.65;3.40;;;;;;;8.06;100.00;102247.75;5076903;28;20044;-90
2023/04/02 09:15:15;;;;;;;13.88;4.15;;;;;;;8.17;100.00;102251.19;5081212;28;20072;-90
2023/04/02 09:17:41;;;;;;;16.48;4.10;;;;;;;8.22;100.00;102232.06;5075382;28;20052;-90
2023/04/02 09:20:27;;;;;;;20.27;4.25;;;;;;;8.03;100.00;102234.72;5093050;28;20457;-89
2023/04/02 09:22:55;;;;;;;14.40;3.88;;;;;;;7.91;100.00;102232.13;5093273;28;20051;-89
2023/04/02 09:25:30;;;;;;;17.38;3.53;;;;;;;7.57;100.00;102177.47;5076371;28;20048;-89
2023/04/02 09:28:00;;;;;;;16.45;3.20;;;;;;;8.11;100.00;102260.78;5062821;28;20045;-89
2023/04/02 09:30:30;;;;;;;15.07;3.40;;;;;;;8.27;100.00;102269.41;5061120;28;20055;-89
2023/04/02 09:33:06;;;;;;;20.58;4.55;;;;;;;8.23;100.00;102273.78;5076092;28;20052;-88
2023/04/02 09:35:56;;;;;;;21.75;3.75;;;;;;;8.23;100.00;102254.66;5075850;28;20083;-89
2023/04/02 09:38:31;;;;;;;11.68;3.03;;;;;;;8.35;100.00;102280.72;5074790;28;20059;-90
2023/04/02 09:41:04;;;;;;;12.25;3.10;;;;;;;8.25;100.00;102255.50;5078346;28;20040;-89
2023/04/02 09:43:36;;;;;;;18.27;3.47;;;;;;;8.39;100.00;102269.38;5076161;28;20056;-90
2023/04/02 09:46:14;;;;;;;21.05;4.50;;;;;;;8.07;100.00;102296.44;5076456;28;20666;-89
2023/04/02 09:48:52;;;;;;;18.10;4.53;;;;;;;8.05;100.00;102251.22;5076620;28;20048;-89
2023/04/02 09:51:28;;;;;;;17.58;3.78;;;;;;;8.29;100.00;102302.47;5076005;28;20139;-90
2023/04/02 09:54:01;;;;;;;14.95;3.90;;;;;;;8.16;100.00;102305.97;5075633;28;20105;-90
2023/04/02 09:56:33;;;;;;;20.48;3.45;;;;;;;8.41;100.00;102301.59;5076621;28;20397;-89
2023/04/02 09:59:16;;;;;;;13.43;3.33;;;;;;;8.26;100.00;102249.44;5095040;28;20558;-90
2023/04/02 10:01:46;;;;;;;13.98;3.10;;;;;;;8.58;100.00;102282.41;5076502;28;20051;-89
2023/04/02 10:04:46;;;;;;;20.63;5.18;;;;;;;8.49;100.00;102284.16;5080034;28;20048;-89
2023/04/02 10:07:35;;;;;;;18.25;2.88;;;;;;;8.87;100.00;102311.84;5072009;28;20085;-89
2023/04/02 10:10:27;;;;;;;12.65;2.75;;;;;;;8.63;100.00;102319.81;5087357;28;20173;-89
2023/04/02 10:13:05;;;;;;;14.70;2.92;;;;;;;8.67;100.00;102322.38;5092858;28;20527;-88
2023/04/02 10:15:46;;;;;;;16.98;3.85;;;;;;;8.33;100.00;102308.56;5074026;28;20055;-88
2023/04/02 10:18:23;;;;;;;18.15;3.45;;;;;;;8.08;100.00;102272.09;5077996;28;20316;-89
2023/04/02 10:20:53;;;;;;;17.42;3.40;;;;;;;7.94;100.00;102264.31;5095449;28;20455;-89
2023/04/02 10:23:24;;;;;;;16.45;2.70;;;;;;;8.42;100.00;102305.06;5064165;28;20072;-88
2023/04/02 10:26:15;;;;;;;16.15;3.78;;;;;;;8.68;100.00;102337.19;5089333;28;20098;-89
2023/04/02 10:28:51;;;;;;;18.00;4.50;;;;;;;8.70;100.00;102343.25;5089673;28;20496;-90
2023/04/02 10:31:25;;;;;;;16.20;3.17;;;;;;;8.57;100.00;102344.19;5070648;28;20083;-90
2023/04/02 10:33:59;;;;;;;;;;;;;;;8.84;100.00;102339.75;5095450;28;20048;-87
2023/04/02 10:36:53;;;;;;;14.60;4.70;;;;;;;8.74;100.00;102350.19;5073883;28;19920;-88
2023/04/02 10:39:26;;;;;;;;;;;;;;;8.74;100.00;102355.41;5065170;28;20142;-86
2023/04/02 10:42:12;;;;;;;22.07;3.50;;;;;;;8.25;100.00;102312.91;5099010;28;20327;-86
2023/04/02 10:44:46;;;;;;;15.38;3.13;;;;;;;8.64;100.00;102361.59;5095539;28;20044;-86
2023/04/02 10:47:25;;;;;;;14.63;3.28;;;;;;;8.62;100.00;102358.06;5077268;28;20048;-86
2023/04/02 10:50:28;;;;;;;17.30;3.05;;;;;;;8.16;100.00;102300.75;5077694;28;20397;-86
2023/04/02 10:53:17;;;;;;;25.90;4.05;;;;;;;8.57;100.00;102345.91;5080258;28;20098;-86
2023/04/02 10:55:55;;;;;;;17.52;4.22;;;;;;;8.44;100.00;102313.78;5093038;28;20059;-86
2023/04/02 10:58:23;;;;;;;17.20;4.60;;;;;;;8.77;100.00;102371.97;5095504;28;20105;-86
2023/04/02 11:00:58;;;;;;;17.73;3.38;;;;;;;8.89;100.00;102367.56;5078088;28;20047;-86
2023/04/02 11:03:43;;;;;;;13.48;3.80;;;;;;;8.74;100.00;102365.00;5108076;28;20044;-86
2023/04/02 11:06:19;;;;;;;16.92;3.95;;;;;;;8.66;100.00;102319.78;5079349;28;20052;-86
2023/04/02 11:08:49;;;;;;;16.58;3.50;;;;;;;9.29;100.00;102369.09;5098141;28;20055;-86
2023/04/02 11:11:27;;;;;;;16.67;4.00;;;;;;;8.85;100.00;102342.34;5094618;28;20101;-86
2023/04/02 11:14:32;;;;;;;15.88;3.58;;;;;;;8.84;100.00;102381.53;5077344;28;20539;-86
2023/04/02 11:17:02;;;;;;;20.17;3.72;;;;;;;8.93;100.00;102361.44;5046583;28;20040;-86
2023/04/02 11:19:31;;;;;;;26.42;4.32;;;;;;;8.73;100.00;102364.16;5089603;28;20054;-86
2023/04/02 11:22:15;;;;;;;12.65;3.50;;;;;;;9.03;100.00;102375.34;5076188;28;20044;-86
2023/04/02 11:24:54;;;;;;;18.45;3.38;;;;;;;9.16;100.00;102343.91;5077604;28;20458;-86
2023/04/02 11:27:29;;;;;;;11.13;3.40;;;;;;;9.25;100.00;102377.84;5077341;28;20070;-86
2023/04/02 11:30:02;;;;;;;16.15;3.25;;;;;;;9.42;100.00;102380.31;5110010;28;20048;-86
2023/04/02 11:32:41;;;;;;;17.02;4.45;;;;;;;9.27;100.00;102378.69;5095007;28;20071;-86
2023/04/02 11:35:28;;;;;;;21.02;3.67;;;;;;;9.27;100.00;102379.56;5077042;28;20044;-86
2023/04/02 11:37:58;;;;;;;16.08;4.25;;;;;;;8.99;100.00;102331.81;5092934;28;20052;-86
2023/04/02 11:40:48;;;;;;;19.00;3.40;;;;;;;9.44;100.00;102397.75;5076593;28;20105;-86
2023/04/02 11:43:34;;;;;;;16.13;3.00;;;;;;;9.54;100.00;102397.69;5077035;28;20102;-85
2023/04/02 11:46:01;;;;;;;18.88;3.63;;;;;;;9.62;100.00;102382.81;5094294;28;20605;-87
2023/04/02 11:48:34;;;;;;;16.90;3.80;;;;;;;9.55;100.00;102378.53;5091687;28;20077;-86
2023/04/02 11:51:21;;;;;;;17.02;4.68;;;;;;;9.29;100.00;102406.53;5075979;28;20043;-86
2023/04/02 11:53:53;;;;;;;22.02;3.55;;;;;;;8.97;100.00;102354.47;5080774;28;20066;-85
2023/04/02 11:56:38;;;;;;;16.55;3.55;;;;;;;9.63;100.00;102403.75;5088852;28;20776;-89
2023/04/02 11:59:20;;;;;;;14.23;4.05;;;;;;;9.54;100.00;102389.84;5077810;28;20546;-94